sensor_id;sensor_type;location;lat;lon;timestamp;temperature;humidity
39951;DHT22;25629;51.444;-2.606;2023-07-20T00:01:28;16.00;1.00
39951;DHT22;25629;51.444;-2.606;2023-07-20T00:03:53;16.00;99.90
39951;DHT22;25629;51.444;-2.606;2023-07-20T00:06:22;16.00;1.00
39951;DHT22;25629;51.444;-2.606;2023-07-20T00:08:49;16.00;12.80
39951;DHT22;25629;51.444;-2.606;2023-07-20T00:11:14;15.90;99.90
39951;DHT22;25629;51.444;-2.606;2023-07-20T00:13:40;15.90;1.00
39951;DHT22;25629;51.444;-2.606;2023-07-20T00:16:06;15.80;81.30
39951;DHT22;25629;51.444;-2.606;2023-07-20T00:18:31;15.80;99.90
39951;DHT22;25629;51.444;-2.606;2023-07-20T00:20:57;15.70;1.00
39951;DHT22;25629;51.444;-2.606;2023-07-20T00:23:25;15.60;99.90
39951;DHT22;25629;51.444;-2.606;2023-07-20T00:25:51;15.60;97.20
39951;DHT22;25629;51.444;-2.606;2023-07-20T00:28:16;15.50;1.00
39951;DHT22;25629;51.444;-2.606;2023-07-20T00:30:42;15.50;98.90
39951;DHT22;25629;51.444;-2.606;2023-07-20T00:33:09;15.50;99.90
39951;DHT22;25629;51.444;-2.606;2023-07-20T00:35:35;15.40;1.00
39951;DHT22;25629;51.444;-2.606;2023-07-20T00:38:01;15.40;1.00
39951;DHT22;25629;51.444;-2.606;2023-07-20T00:40:27;15.30;55.80
39951;DHT22;25629;51.444;-2.606;2023-07-20T00:42:53;15.40;99.90
39951;DHT22;25629;51.444;-2.606;2023-07-20T00:45:19;15.30;99.90
39951;DHT22;25629;51.444;-2.606;2023-07-20T00:47:44;15.30;99.90
39951;DHT22;25629;51.444;-2.606;2023-07-20T00:50:10;15.30;99.90
39951;DHT22;25629;51.444;-2.606;2023-07-20T00:52:35;15.30;99.90
39951;DHT22;25629;51.444;-2.606;2023-07-20T00:55:04;15.20;99.90
39951;DHT22;25629;51.444;-2.606;2023-07-20T00:57:30;15.20;99.90
39951;DHT22;25629;51.444;-2.606;2023-07-20T00:59:56;15.20;99.90
39951;DHT22;25629;51.444;-2.606;2023-07-20T01:02:21;15.10;99.90
39951;DHT22;25629;51.444;-2.606;2023-07-20T01:04:47;15.10;99.90
39951;DHT22;25629;51.444;-2.606;2023-07-20T01:12:07;15.00;99.90
39951;DHT22;25629;51.444;-2.606;2023-07-20T01:14:34;14.90;99.90
39951;DHT22;25629;51.444;-2.606;2023-07-20T01:16:59;14.80;99.90
39951;DHT22;25629;51.444;-2.606;2023-07-20T01:19:25;14.80;99.90
39951;DHT22;25629;51.444;-2.606;2023-07-20T01:21:59;14.80;99.90
39951;DHT22;25629;51.444;-2.606;2023-07-20T01:29:43;14.70;1.00
39951;DHT22;25629;51.444;-2.606;2023-07-20T01:32:16;14.70;99.90
39951;DHT22;25629;51.444;-2.606;2023-07-20T01:34:42;14.60;1.00
39951;DHT22;25629;51.444;-2.606;2023-07-20T01:37:09;14.60;1.00
39951;DHT22;25629;51.444;-2.606;2023-07-20T01:39:36;14.60;1.00
39951;DHT22;25629;51.444;-2.606;2023-07-20T01:42:02;14.60;1.00
39951;DHT22;25629;51.444;-2.606;2023-07-20T01:44:28;14.50;1.00
39951;DHT22;25629;51.444;-2.606;2023-07-20T01:46:54;14.50;1.00
39951;DHT22;25629;51.444;-2.606;2023-07-20T01:49:20;14.50;1.00
39951;DHT22;25629;51.444;-2.606;2023-07-20T01:51:45;14.40;99.90
39951;DHT22;25629;51.444;-2.606;2023-07-20T01:54:11;14.40;99.90
39951;DHT22;25629;51.444;-2.606;2023-07-20T01:56:37;14.30;99.90
39951;DHT22;25629;51.444;-2.606;2023-07-20T01:59:03;14.30;99.90
39951;DHT22;25629;51.444;-2.606;2023-07-20T02:01:28;14.30;99.90
39951;DHT22;25629;51.444;-2.606;2023-07-20T02:03:54;14.20;99.90
39951;DHT22;25629;51.444;-2.606;2023-07-20T02:06:19;14.20;99.90
39951;DHT22;25629;51.444;-2.606;2023-07-20T02:08:45;14.20;99.90
39951;DHT22;25629;51.444;-2.606;2023-07-20T02:11:11;14.10;1.00
39951;DHT22;25629;51.444;-2.606;2023-07-20T02:13:36;14.10;1.00
39951;DHT22;25629;51.444;-2.606;2023-07-20T02:16:02;14.00;1.00
39951;DHT22;25629;51.444;-2.606;2023-07-20T02:18:27;14.00;1.00
39951;DHT22;25629;51.444;-2.606;2023-07-20T02:20:53;14.00;1.00
39951;DHT22;25629;51.444;-2.606;2023-07-20T02:23:19;14.00;1.00
39951;DHT22;25629;51.444;-2.606;2023-07-20T02:25:45;14.00;1.00
39951;DHT22;25629;51.444;-2.606;2023-07-20T02:28:12;14.00;1.00
39951;DHT22;25629;51.444;-2.606;2023-07-20T02:30:38;14.00;1.00
39951;DHT22;25629;51.444;-2.606;2023-07-20T02:33:04;14.00;1.00
39951;DHT22;25629;51.444;-2.606;2023-07-20T02:35:32;13.90;1.00
39951;DHT22;25629;51.444;-2.606;2023-07-20T02:37:57;13.90;1.00
39951;DHT22;25629;51.444;-2.606;2023-07-20T02:40:23;13.90;1.00
39951;DHT22;25629;51.444;-2.606;2023-07-20T02:42:48;13.90;1.00
39951;DHT22;25629;51.444;-2.606;2023-07-20T02:45:14;13.90;1.00
39951;DHT22;25629;51.444;-2.606;2023-07-20T02:47:39;13.80;1.00
39951;DHT22;25629;51.444;-2.606;2023-07-20T02:50:06;13.80;1.00
39951;DHT22;25629;51.444;-2.606;2023-07-20T02:52:32;13.80;1.00
39951;DHT22;25629;51.444;-2.606;2023-07-20T02:54:57;13.70;1.00
39951;DHT22;25629;51.444;-2.606;2023-07-20T02:57:23;13.70;1.00
39951;DHT22;25629;51.444;-2.606;2023-07-20T02:59:48;13.70;1.00
39951;DHT22;25629;51.444;-2.606;2023-07-20T03:02:14;13.60;1.00
39951;DHT22;25629;51.444;-2.606;2023-07-20T03:04:40;13.60;1.00
39951;DHT22;25629;51.444;-2.606;2023-07-20T03:07:05;13.50;1.00
39951;DHT22;25629;51.444;-2.606;2023-07-20T03:09:32;13.50;1.00
39951;DHT22;25629;51.444;-2.606;2023-07-20T03:11:57;13.40;1.00
39951;DHT22;25629;51.444;-2.606;2023-07-20T03:14:23;13.40;1.00
39951;DHT22;25629;51.444;-2.606;2023-07-20T03:16:49;13.40;1.00
39951;DHT22;25629;51.444;-2.606;2023-07-20T03:19:15;13.40;1.00
39951;DHT22;25629;51.444;-2.606;2023-07-20T03:21:40;13.40;1.00
39951;DHT22;25629;51.444;-2.606;2023-07-20T03:24:07;13.40;1.00
39951;DHT22;25629;51.444;-2.606;2023-07-20T03:26:33;13.30;1.00
39951;DHT22;25629;51.444;-2.606;2023-07-20T03:28:58;13.30;1.00
39951;DHT22;25629;51.444;-2.606;2023-07-20T03:31:24;13.30;1.00
39951;DHT22;25629;51.444;-2.606;2023-07-20T03:33:49;13.30;1.00
39951;DHT22;25629;51.444;-2.606;2023-07-20T03:36:15;13.30;1.00
39951;DHT22;25629;51.444;-2.606;2023-07-20T03:38:40;13.30;1.00
39951;DHT22;25629;51.444;-2.606;2023-07-20T03:41:06;13.20;1.00
39951;DHT22;25629;51.444;-2.606;2023-07-20T03:43:31;13.20;1.00
39951;DHT22;25629;51.444;-2.606;2023-07-20T03:45:57;13.10;1.00
39951;DHT22;25629;51.444;-2.606;2023-07-20T03:48:23;13.20;1.00
39951;DHT22;25629;51.444;-2.606;2023-07-20T03:50:50;13.20;1.00
39951;DHT22;25629;51.444;-2.606;2023-07-20T03:53:15;13.10;1.00
39951;DHT22;25629;51.444;-2.606;2023-07-20T03:55:44;13.20;1.00
39951;DHT22;25629;51.444;-2.606;2023-07-20T03:58:09;13.20;1.00
39951;DHT22;25629;51.444;-2.606;2023-07-20T04:00:35;13.10;1.00
39951;DHT22;25629;51.444;-2.606;2023-07-20T04:03:00;13.10;1.00
39951;DHT22;25629;51.444;-2.606;2023-07-20T04:05:26;13.00;1.00
39951;DHT22;25629;51.444;-2.606;2023-07-20T04:07:52;13.00;1.00
39951;DHT22;25629;51.444;-2.606;2023-07-20T04:10:18;13.00;1.00
39951;DHT22;25629;51.444;-2.606;2023-07-20T04:12:44;13.00;1.00
39951;DHT22;25629;51.444;-2.606;2023-07-20T04:15:10;12.90;1.00
39951;DHT22;25629;51.444;-2.606;2023-07-20T04:17:35;12.90;1.00
39951;DHT22;25629;51.444;-2.606;2023-07-20T04:20:01;12.90;1.00
39951;DHT22;25629;51.444;-2.606;2023-07-20T04:22:28;12.80;1.00
39951;DHT22;25629;51.444;-2.606;2023-07-20T04:24:53;12.90;3.90
39951;DHT22;25629;51.444;-2.606;2023-07-20T04:27:19;12.90;11.30
39951;DHT22;25629;51.444;-2.606;2023-07-20T04:29:44;12.90;8.00
39951;DHT22;25629;51.444;-2.606;2023-07-20T04:32:10;12.90;11.10
39951;DHT22;25629;51.444;-2.606;2023-07-20T04:34:36;12.90;10.40
39951;DHT22;25629;51.444;-2.606;2023-07-20T04:37:03;12.80;11.50
39951;DHT22;25629;51.444;-2.606;2023-07-20T04:39:28;12.80;10.20
39951;DHT22;25629;51.444;-2.606;2023-07-20T04:41:54;12.90;16.80
39951;DHT22;25629;51.444;-2.606;2023-07-20T04:44:19;12.90;13.80
39951;DHT22;25629;51.444;-2.606;2023-07-20T04:46:45;12.90;17.70
39951;DHT22;25629;51.444;-2.606;2023-07-20T04:49:11;12.90;17.20
39951;DHT22;25629;51.444;-2.606;2023-07-20T04:51:38;12.90;7.80
39951;DHT22;25629;51.444;-2.606;2023-07-20T04:54:04;12.90;8.60
39951;DHT22;25629;51.444;-2.606;2023-07-20T04:56:29;12.90;3.30
39951;DHT22;25629;51.444;-2.606;2023-07-20T04:58:55;12.90;1.40
39951;DHT22;25629;51.444;-2.606;2023-07-20T05:01:20;12.90;1.10
39951;DHT22;25629;51.444;-2.606;2023-07-20T05:03:46;12.90;7.50
39951;DHT22;25629;51.444;-2.606;2023-07-20T05:06:11;12.90;4.80
39951;DHT22;25629;51.444;-2.606;2023-07-20T05:08:37;12.90;9.30
39951;DHT22;25629;51.444;-2.606;2023-07-20T05:11:04;13.00;6.60
39951;DHT22;25629;51.444;-2.606;2023-07-20T05:13:29;13.00;7.80
39951;DHT22;25629;51.444;-2.606;2023-07-20T05:15:55;13.00;2.80
39951;DHT22;25629;51.444;-2.606;2023-07-20T05:18:21;13.10;3.80
39951;DHT22;25629;51.444;-2.606;2023-07-20T05:20:47;13.10;3.70
39951;DHT22;25629;51.444;-2.606;2023-07-20T05:23:13;13.20;1.00
39951;DHT22;25629;51.444;-2.606;2023-07-20T05:25:38;13.20;1.00
39951;DHT22;25629;51.444;-2.606;2023-07-20T05:28:04;13.30;1.00
39951;DHT22;25629;51.444;-2.606;2023-07-20T05:30:29;13.40;1.00
39951;DHT22;25629;51.444;-2.606;2023-07-20T05:32:55;13.50;1.00
39951;DHT22;25629;51.444;-2.606;2023-07-20T05:35:20;13.50;1.00
39951;DHT22;25629;51.444;-2.606;2023-07-20T05:37:46;13.60;1.00
39951;DHT22;25629;51.444;-2.606;2023-07-20T05:40:12;13.70;1.00
39951;DHT22;25629;51.444;-2.606;2023-07-20T05:42:38;13.80;1.00
39951;DHT22;25629;51.444;-2.606;2023-07-20T05:45:05;13.90;1.00
39951;DHT22;25629;51.444;-2.606;2023-07-20T05:47:30;14.10;1.00
39951;DHT22;25629;51.444;-2.606;2023-07-20T05:49:57;14.20;1.00
39951;DHT22;25629;51.444;-2.606;2023-07-20T05:52:22;14.40;99.90
39951;DHT22;25629;51.444;-2.606;2023-07-20T05:54:48;14.50;99.90
39951;DHT22;25629;51.444;-2.606;2023-07-20T05:57:14;14.70;99.90
39951;DHT22;25629;51.444;-2.606;2023-07-20T05:59:39;14.90;1.00
39951;DHT22;25629;51.444;-2.606;2023-07-20T06:02:09;15.00;99.90
39951;DHT22;25629;51.444;-2.606;2023-07-20T06:04:35;15.10;1.00
39951;DHT22;25629;51.444;-2.606;2023-07-20T06:07:00;15.20;99.90
39951;DHT22;25629;51.444;-2.606;2023-07-20T06:09:26;15.30;99.90
39951;DHT22;25629;51.444;-2.606;2023-07-20T06:11:52;15.50;99.90
39951;DHT22;25629;51.444;-2.606;2023-07-20T06:14:18;15.60;99.90
39951;DHT22;25629;51.444;-2.606;2023-07-20T06:16:44;15.70;1.00
39951;DHT22;25629;51.444;-2.606;2023-07-20T06:19:09;15.70;1.00
39951;DHT22;25629;51.444;-2.606;2023-07-20T06:21:37;15.80;1.00
39951;DHT22;25629;51.444;-2.606;2023-07-20T06:24:03;15.80;1.00
39951;DHT22;25629;51.444;-2.606;2023-07-20T06:26:28;15.90;1.00
39951;DHT22;25629;51.444;-2.606;2023-07-20T06:28:55;16.00;1.00
39951;DHT22;25629;51.444;-2.606;2023-07-20T06:31:21;16.00;99.90
39951;DHT22;25629;51.444;-2.606;2023-07-20T06:33:47;16.00;17.00
39951;DHT22;25629;51.444;-2.606;2023-07-20T06:36:12;16.00;12.80
39951;DHT22;25629;51.444;-2.606;2023-07-20T06:38:38;16.10;99.90
39951;DHT22;25629;51.444;-2.606;2023-07-20T06:41:03;16.10;45.90
39951;DHT22;25629;51.444;-2.606;2023-07-20T06:43:29;16.20;64.10
39951;DHT22;25629;51.444;-2.606;2023-07-20T06:45:55;16.30;1.00
39951;DHT22;25629;51.444;-2.606;2023-07-20T06:48:21;16.30;99.90
39951;DHT22;25629;51.444;-2.606;2023-07-20T06:50:47;16.20;99.90
39951;DHT22;25629;51.444;-2.606;2023-07-20T06:53:12;16.30;99.90
39951;DHT22;25629;51.444;-2.606;2023-07-20T06:55:38;16.30;99.90
39951;DHT22;25629;51.444;-2.606;2023-07-20T06:58:04;16.40;99.90
39951;DHT22;25629;51.444;-2.606;2023-07-20T07:00:30;16.40;99.90
39951;DHT22;25629;51.444;-2.606;2023-07-20T07:02:55;16.50;99.90
39951;DHT22;25629;51.444;-2.606;2023-07-20T07:05:21;16.60;99.90
39951;DHT22;25629;51.444;-2.606;2023-07-20T07:07:47;16.70;99.90
39951;DHT22;25629;51.444;-2.606;2023-07-20T07:10:12;16.70;99.90
39951;DHT22;25629;51.444;-2.606;2023-07-20T07:12:39;16.90;99.90
39951;DHT22;25629;51.444;-2.606;2023-07-20T07:15:04;17.10;99.90
39951;DHT22;25629;51.444;-2.606;2023-07-20T07:17:33;17.20;72.50
39951;DHT22;25629;51.444;-2.606;2023-07-20T07:19:58;17.40;1.00
39951;DHT22;25629;51.444;-2.606;2023-07-20T07:22:24;17.60;1.00
39951;DHT22;25629;51.444;-2.606;2023-07-20T07:24:50;17.70;1.00
39951;DHT22;25629;51.444;-2.606;2023-07-20T07:27:16;17.90;1.00
39951;DHT22;25629;51.444;-2.606;2023-07-20T07:29:42;18.10;1.00
39951;DHT22;25629;51.444;-2.606;2023-07-20T07:32:10;18.40;1.00
39951;DHT22;25629;51.444;-2.606;2023-07-20T07:34:36;18.50;99.90
39951;DHT22;25629;51.444;-2.606;2023-07-20T07:37:03;18.50;99.90
39951;DHT22;25629;51.444;-2.606;2023-07-20T07:39:28;18.40;99.90
39951;DHT22;25629;51.444;-2.606;2023-07-20T07:41:55;18.30;99.90
39951;DHT22;25629;51.444;-2.606;2023-07-20T07:44:20;18.20;99.90
39951;DHT22;25629;51.444;-2.606;2023-07-20T07:46:49;18.10;99.90
39951;DHT22;25629;51.444;-2.606;2023-07-20T07:49:15;18.10;99.90
39951;DHT22;25629;51.444;-2.606;2023-07-20T07:51:40;18.30;99.90
39951;DHT22;25629;51.444;-2.606;2023-07-20T07:54:06;18.50;99.90
39951;DHT22;25629;51.444;-2.606;2023-07-20T07:56:31;18.80;99.90
39951;DHT22;25629;51.444;-2.606;2023-07-20T07:58:57;19.10;99.90
39951;DHT22;25629;51.444;-2.606;2023-07-20T08:01:22;19.40;99.90
39951;DHT22;25629;51.444;-2.606;2023-07-20T08:03:48;19.50;99.90
39951;DHT22;25629;51.444;-2.606;2023-07-20T08:06:14;19.70;99.90
39951;DHT22;25629;51.444;-2.606;2023-07-20T08:08:39;19.90;99.90
39951;DHT22;25629;51.444;-2.606;2023-07-20T08:11:05;20.20;99.90
39951;DHT22;25629;51.444;-2.606;2023-07-20T08:13:31;20.40;99.90
39951;DHT22;25629;51.444;-2.606;2023-07-20T08:15:57;20.60;99.90
39951;DHT22;25629;51.444;-2.606;2023-07-20T08:18:23;20.60;99.90
39951;DHT22;25629;51.444;-2.606;2023-07-20T08:20:49;20.40;99.90
39951;DHT22;25629;51.444;-2.606;2023-07-20T08:23:15;20.30;99.90
39951;DHT22;25629;51.444;-2.606;2023-07-20T08:25:41;20.30;99.90
39951;DHT22;25629;51.444;-2.606;2023-07-20T08:28:13;20.30;99.90
39951;DHT22;25629;51.444;-2.606;2023-07-20T08:30:43;20.30;99.90
39951;DHT22;25629;51.444;-2.606;2023-07-20T08:33:09;20.50;99.90
39951;DHT22;25629;51.444;-2.606;2023-07-20T08:35:35;20.20;99.90
39951;DHT22;25629;51.444;-2.606;2023-07-20T08:38:01;20.20;99.90
39951;DHT22;25629;51.444;-2.606;2023-07-20T08:40:27;20.30;99.90
39951;DHT22;25629;51.444;-2.606;2023-07-20T08:42:53;20.30;99.90
39951;DHT22;25629;51.444;-2.606;2023-07-20T08:45:20;20.50;99.90
39951;DHT22;25629;51.444;-2.606;2023-07-20T08:47:47;20.70;99.90
39951;DHT22;25629;51.444;-2.606;2023-07-20T08:50:14;20.80;99.90
39951;DHT22;25629;51.444;-2.606;2023-07-20T08:52:40;21.00;99.90
39951;DHT22;25629;51.444;-2.606;2023-07-20T08:55:06;21.30;99.90
39951;DHT22;25629;51.444;-2.606;2023-07-20T08:57:32;21.60;99.90
39951;DHT22;25629;51.444;-2.606;2023-07-20T08:59:58;21.90;99.90
39951;DHT22;25629;51.444;-2.606;2023-07-20T09:02:25;21.80;99.90
39951;DHT22;25629;51.444;-2.606;2023-07-20T09:04:52;21.70;99.90
39951;DHT22;25629;51.444;-2.606;2023-07-20T09:07:17;21.70;99.90
39951;DHT22;25629;51.444;-2.606;2023-07-20T09:09:45;22.00;99.90
39951;DHT22;25629;51.444;-2.606;2023-07-20T09:12:14;22.00;99.90
39951;DHT22;25629;51.444;-2.606;2023-07-20T09:14:42;22.10;99.90
39951;DHT22;25629;51.444;-2.606;2023-07-20T09:17:08;22.20;99.90
39951;DHT22;25629;51.444;-2.606;2023-07-20T09:19:37;22.40;99.90
39951;DHT22;25629;51.444;-2.606;2023-07-20T09:22:03;22.60;99.90
39951;DHT22;25629;51.444;-2.606;2023-07-20T09:24:30;22.90;99.90
39951;DHT22;25629;51.444;-2.606;2023-07-20T09:26:57;23.30;99.90
39951;DHT22;25629;51.444;-2.606;2023-07-20T09:29:23;23.70;99.90
39951;DHT22;25629;51.444;-2.606;2023-07-20T09:31:58;24.30;99.90
39951;DHT22;25629;51.444;-2.606;2023-07-20T09:34:24;24.60;99.90
39951;DHT22;25629;51.444;-2.606;2023-07-20T09:36:49;24.60;99.90
39951;DHT22;25629;51.444;-2.606;2023-07-20T09:39:16;24.60;99.90
39951;DHT22;25629;51.444;-2.606;2023-07-20T09:41:42;24.20;99.90
39951;DHT22;25629;51.444;-2.606;2023-07-20T09:44:07;23.80;99.90
39951;DHT22;25629;51.444;-2.606;2023-07-20T09:46:48;23.70;99.90
39951;DHT22;25629;51.444;-2.606;2023-07-20T09:49:13;23.70;99.90
39951;DHT22;25629;51.444;-2.606;2023-07-20T09:51:39;24.10;99.90
39951;DHT22;25629;51.444;-2.606;2023-07-20T09:54:05;23.90;99.90
39951;DHT22;25629;51.444;-2.606;2023-07-20T09:56:30;23.30;99.90
39951;DHT22;25629;51.444;-2.606;2023-07-20T09:58:58;22.90;99.90
39951;DHT22;25629;51.444;-2.606;2023-07-20T10:01:23;22.50;99.90
39951;DHT22;25629;51.444;-2.606;2023-07-20T10:03:51;22.40;99.90
39951;DHT22;25629;51.444;-2.606;2023-07-20T10:06:20;22.30;99.90
39951;DHT22;25629;51.444;-2.606;2023-07-20T10:08:49;22.60;99.90
39951;DHT22;25629;51.444;-2.606;2023-07-20T10:11:17;23.10;99.90
39951;DHT22;25629;51.444;-2.606;2023-07-20T10:13:44;23.40;99.90
39951;DHT22;25629;51.444;-2.606;2023-07-20T10:16:11;23.70;99.90
39951;DHT22;25629;51.444;-2.606;2023-07-20T10:21:13;24.30;99.90
39951;DHT22;25629;51.444;-2.606;2023-07-20T10:23:41;24.60;99.90
39951;DHT22;25629;51.444;-2.606;2023-07-20T10:26:07;24.80;99.90
39951;DHT22;25629;51.444;-2.606;2023-07-20T10:28:33;24.20;99.90
39951;DHT22;25629;51.444;-2.606;2023-07-20T10:30:59;23.80;99.90
39951;DHT22;25629;51.444;-2.606;2023-07-20T10:33:25;23.60;99.90
39951;DHT22;25629;51.444;-2.606;2023-07-20T10:35:51;23.70;99.90
39951;DHT22;25629;51.444;-2.606;2023-07-20T10:38:17;24.10;99.90
39951;DHT22;25629;51.444;-2.606;2023-07-20T10:40:43;24.30;99.90
39951;DHT22;25629;51.444;-2.606;2023-07-20T10:43:19;24.40;99.90
39951;DHT22;25629;51.444;-2.606;2023-07-20T10:45:51;24.30;99.90
39951;DHT22;25629;51.444;-2.606;2023-07-20T10:48:24;24.40;99.90
39951;DHT22;25629;51.444;-2.606;2023-07-20T10:53:34;24.80;99.90
39951;DHT22;25629;51.444;-2.606;2023-07-20T10:56:12;25.00;99.90
39951;DHT22;25629;51.444;-2.606;2023-07-20T10:58:39;24.90;99.90
39951;DHT22;25629;51.444;-2.606;2023-07-20T11:01:05;24.90;99.90
39951;DHT22;25629;51.444;-2.606;2023-07-20T11:03:40;24.90;99.90
39951;DHT22;25629;51.444;-2.606;2023-07-20T11:08:57;25.60;99.90
39951;DHT22;25629;51.444;-2.606;2023-07-20T11:11:29;26.00;99.90
39951;DHT22;25629;51.444;-2.606;2023-07-20T11:13:55;26.00;99.90
39951;DHT22;25629;51.444;-2.606;2023-07-20T11:18:59;25.10;99.90
39951;DHT22;25629;51.444;-2.606;2023-07-20T11:21:25;24.30;99.90
39951;DHT22;25629;51.444;-2.606;2023-07-20T11:23:54;24.30;99.90
39951;DHT22;25629;51.444;-2.606;2023-07-20T11:26:20;24.60;99.90
39951;DHT22;25629;51.444;-2.606;2023-07-20T11:28:52;25.10;99.90
39951;DHT22;25629;51.444;-2.606;2023-07-20T11:31:18;25.40;99.90
39951;DHT22;25629;51.444;-2.606;2023-07-20T11:33:44;25.20;99.90
39951;DHT22;25629;51.444;-2.606;2023-07-20T11:36:10;25.30;99.90
39951;DHT22;25629;51.444;-2.606;2023-07-20T11:38:35;25.10;99.90
39951;DHT22;25629;51.444;-2.606;2023-07-20T11:41:04;25.30;99.90
39951;DHT22;25629;51.444;-2.606;2023-07-20T11:43:30;25.40;99.90
39951;DHT22;25629;51.444;-2.606;2023-07-20T11:45:56;24.80;99.90
39951;DHT22;25629;51.444;-2.606;2023-07-20T11:48:21;24.40;99.90
39951;DHT22;25629;51.444;-2.606;2023-07-20T11:50:47;24.00;99.90
39951;DHT22;25629;51.444;-2.606;2023-07-20T11:53:13;23.60;99.90
39951;DHT22;25629;51.444;-2.606;2023-07-20T11:55:39;23.40;99.90
39951;DHT22;25629;51.444;-2.606;2023-07-20T11:58:06;23.40;99.90
39951;DHT22;25629;51.444;-2.606;2023-07-20T12:00:32;23.40;99.90
39951;DHT22;25629;51.444;-2.606;2023-07-20T12:02:58;23.50;99.90
39951;DHT22;25629;51.444;-2.606;2023-07-20T12:05:24;23.90;99.90
39951;DHT22;25629;51.444;-2.606;2023-07-20T12:07:50;24.30;99.90
39951;DHT22;25629;51.444;-2.606;2023-07-20T12:10:23;24.00;99.90
39951;DHT22;25629;51.444;-2.606;2023-07-20T12:12:48;23.80;99.90
39951;DHT22;25629;51.444;-2.606;2023-07-20T12:17:44;23.30;99.90
39951;DHT22;25629;51.444;-2.606;2023-07-20T12:20:09;23.40;99.90
39951;DHT22;25629;51.444;-2.606;2023-07-20T12:22:39;24.00;99.90
39951;DHT22;25629;51.444;-2.606;2023-07-20T12:25:08;24.90;99.90
39951;DHT22;25629;51.444;-2.606;2023-07-20T12:27:37;25.80;99.90
39951;DHT22;25629;51.444;-2.606;2023-07-20T12:30:07;26.40;99.90
39951;DHT22;25629;51.444;-2.606;2023-07-20T12:32:33;26.50;99.90
39951;DHT22;25629;51.444;-2.606;2023-07-20T12:34:58;26.50;99.90
39951;DHT22;25629;51.444;-2.606;2023-07-20T12:37:25;26.20;99.90
39951;DHT22;25629;51.444;-2.606;2023-07-20T12:39:52;25.80;99.90
39951;DHT22;25629;51.444;-2.606;2023-07-20T12:42:17;25.40;99.90
39951;DHT22;25629;51.444;-2.606;2023-07-20T12:44:43;25.10;99.90
39951;DHT22;25629;51.444;-2.606;2023-07-20T12:47:09;24.60;99.90
39951;DHT22;25629;51.444;-2.606;2023-07-20T12:49:34;24.40;99.90
39951;DHT22;25629;51.444;-2.606;2023-07-20T12:52:00;24.10;99.90
39951;DHT22;25629;51.444;-2.606;2023-07-20T12:54:25;23.90;99.90
39951;DHT22;25629;51.444;-2.606;2023-07-20T12:56:51;24.00;99.90
39951;DHT22;25629;51.444;-2.606;2023-07-20T12:59:16;23.80;99.90
39951;DHT22;25629;51.444;-2.606;2023-07-20T13:01:42;23.70;99.90
39951;DHT22;25629;51.444;-2.606;2023-07-20T13:04:09;23.70;99.90
39951;DHT22;25629;51.444;-2.606;2023-07-20T13:06:35;23.40;99.90
39951;DHT22;25629;51.444;-2.606;2023-07-20T13:09:01;23.20;99.90
39951;DHT22;25629;51.444;-2.606;2023-07-20T13:11:26;23.00;99.90
39951;DHT22;25629;51.444;-2.606;2023-07-20T13:13:52;23.00;99.90
39951;DHT22;25629;51.444;-2.606;2023-07-20T13:16:17;22.90;99.90
39951;DHT22;25629;51.444;-2.606;2023-07-20T13:18:43;22.90;99.90
39951;DHT22;25629;51.444;-2.606;2023-07-20T13:21:09;22.90;99.90
39951;DHT22;25629;51.444;-2.606;2023-07-20T13:23:36;23.00;99.90
39951;DHT22;25629;51.444;-2.606;2023-07-20T13:26:02;22.90;99.90
39951;DHT22;25629;51.444;-2.606;2023-07-20T13:28:28;22.90;99.90
39951;DHT22;25629;51.444;-2.606;2023-07-20T13:30:54;22.90;99.90
39951;DHT22;25629;51.444;-2.606;2023-07-20T13:33:20;22.90;99.90
39951;DHT22;25629;51.444;-2.606;2023-07-20T13:35:45;22.80;99.90
39951;DHT22;25629;51.444;-2.606;2023-07-20T13:38:12;23.00;99.90
39951;DHT22;25629;51.444;-2.606;2023-07-20T13:40:37;23.10;99.90
39951;DHT22;25629;51.444;-2.606;2023-07-20T13:43:03;23.30;99.90
39951;DHT22;25629;51.444;-2.606;2023-07-20T13:45:28;23.40;99.90
39951;DHT22;25629;51.444;-2.606;2023-07-20T13:47:54;23.60;99.90
39951;DHT22;25629;51.444;-2.606;2023-07-20T13:50:20;23.60;99.90
39951;DHT22;25629;51.444;-2.606;2023-07-20T13:52:45;23.60;99.90
39951;DHT22;25629;51.444;-2.606;2023-07-20T13:55:11;23.80;99.90
39951;DHT22;25629;51.444;-2.606;2023-07-20T13:57:36;24.00;99.90
39951;DHT22;25629;51.444;-2.606;2023-07-20T14:00:05;24.20;99.90
39951;DHT22;25629;51.444;-2.606;2023-07-20T14:02:32;24.30;99.90
39951;DHT22;25629;51.444;-2.606;2023-07-20T14:04:57;24.70;99.90
39951;DHT22;25629;51.444;-2.606;2023-07-20T14:07:23;25.10;99.90
39951;DHT22;25629;51.444;-2.606;2023-07-20T14:09:49;25.10;99.90
39951;DHT22;25629;51.444;-2.606;2023-07-20T14:12:15;24.80;99.90
39951;DHT22;25629;51.444;-2.606;2023-07-20T14:14:40;24.40;99.90
39951;DHT22;25629;51.444;-2.606;2023-07-20T14:17:09;24.40;99.90
39951;DHT22;25629;51.444;-2.606;2023-07-20T14:19:37;25.50;99.90
39951;DHT22;25629;51.444;-2.606;2023-07-20T14:22:02;27.00;99.90
39951;DHT22;25629;51.444;-2.606;2023-07-20T14:24:29;27.90;99.90
39951;DHT22;25629;51.444;-2.606;2023-07-20T14:26:54;28.40;99.90
39951;DHT22;25629;51.444;-2.606;2023-07-20T14:29:20;28.80;99.90
39951;DHT22;25629;51.444;-2.606;2023-07-20T14:31:46;28.60;99.90
39951;DHT22;25629;51.444;-2.606;2023-07-20T14:34:18;28.40;99.90
39951;DHT22;25629;51.444;-2.606;2023-07-20T14:36:44;27.40;99.90
39951;DHT22;25629;51.444;-2.606;2023-07-20T14:39:10;26.90;99.90
39951;DHT22;25629;51.444;-2.606;2023-07-20T14:41:36;26.50;99.90
39951;DHT22;25629;51.444;-2.606;2023-07-20T14:44:02;26.00;99.90
39951;DHT22;25629;51.444;-2.606;2023-07-20T14:46:27;26.10;99.90
39951;DHT22;25629;51.444;-2.606;2023-07-20T14:48:53;26.80;99.90
39951;DHT22;25629;51.444;-2.606;2023-07-20T14:51:19;27.60;99.90
39951;DHT22;25629;51.444;-2.606;2023-07-20T14:53:44;28.40;99.90
39951;DHT22;25629;51.444;-2.606;2023-07-20T14:56:10;27.70;99.90
39951;DHT22;25629;51.444;-2.606;2023-07-20T14:58:36;26.70;99.90
39951;DHT22;25629;51.444;-2.606;2023-07-20T15:01:02;25.60;99.90
39951;DHT22;25629;51.444;-2.606;2023-07-20T15:03:27;25.00;99.90
39951;DHT22;25629;51.444;-2.606;2023-07-20T15:05:53;23.90;99.90
39951;DHT22;25629;51.444;-2.606;2023-07-20T15:08:19;22.90;99.90
39951;DHT22;25629;51.444;-2.606;2023-07-20T15:10:45;22.00;99.90
39951;DHT22;25629;51.444;-2.606;2023-07-20T15:13:12;21.30;99.90
39951;DHT22;25629;51.444;-2.606;2023-07-20T15:15:37;20.80;99.90
39951;DHT22;25629;51.444;-2.606;2023-07-20T15:18:03;20.50;99.90
39951;DHT22;25629;51.444;-2.606;2023-07-20T15:20:29;20.50;99.90
39951;DHT22;25629;51.444;-2.606;2023-07-20T15:22:57;20.60;99.90
39951;DHT22;25629;51.444;-2.606;2023-07-20T15:25:22;20.70;99.90
39951;DHT22;25629;51.444;-2.606;2023-07-20T15:27:48;20.70;99.90
39951;DHT22;25629;51.444;-2.606;2023-07-20T15:30:14;20.60;99.90
39951;DHT22;25629;51.444;-2.606;2023-07-20T15:32:40;20.50;99.90
39951;DHT22;25629;51.444;-2.606;2023-07-20T15:35:09;20.50;99.90
39951;DHT22;25629;51.444;-2.606;2023-07-20T15:37:34;20.60;99.90